sensor_id;sensor_type;location;lat;lon;timestamp;temperature;humidity
814;DHT22;389;48.710;9.392;2023-04-01T00:02:17;10.30;98.00
814;DHT22;389;48.710;9.392;2023-04-01T00:04:43;10.20;97.90
814;DHT22;389;48.710;9.392;2023-04-01T00:07:09;10.20;97.90
814;DHT22;389;48.710;9.392;2023-04-01T00:09:34;10.20;98.00
814;DHT22;389;48.710;9.392;2023-04-01T00:12:00;10.20;98.00
814;DHT22;389;48.710;9.392;2023-04-01T00:14:26;10.20;97.90
814;DHT22;389;48.710;9.392;2023-04-01T00:16:52;10.20;98.00
814;DHT22;389;48.710;9.392;2023-04-01T00:19:18;10.20;98.10
814;DHT22;389;48.710;9.392;2023-04-01T00:21:44;10.20;98.00
814;DHT22;389;48.710;9.392;2023-04-01T00:24:09;10.20;98.00
814;DHT22;389;48.710;9.392;2023-04-01T00:26:36;10.20;98.10
814;DHT22;389;48.710;9.392;2023-04-01T00:29:02;10.20;98.10
814;DHT22;389;48.710;9.392;2023-04-01T00:31:32;10.30;98.20
814;DHT22;389;48.710;9.392;2023-04-01T00:33:57;10.20;98.10
814;DHT22;389;48.710;9.392;2023-04-01T00:36:24;10.10;98.30
814;DHT22;389;48.710;9.392;2023-04-01T00:38:49;10.20;98.00
814;DHT22;389;48.710;9.392;2023-04-01T00:41:16;10.20;98.00
814;DHT22;389;48.710;9.392;2023-04-01T00:43:43;10.20;98.00
814;DHT22;389;48.710;9.392;2023-04-01T00:46:09;10.10;97.90
814;DHT22;389;48.710;9.392;2023-04-01T00:48:45;10.10;97.90
814;DHT22;389;48.710;9.392;2023-04-01T00:51:22;10.10;98.00
814;DHT22;389;48.710;9.392;2023-04-01T00:53:51;10.10;98.00
814;DHT22;389;48.710;9.392;2023-04-01T00:58:51;10.20;98.00
814;DHT22;389;48.710;9.392;2023-04-01T01:01:19;10.20;98.10
814;DHT22;389;48.710;9.392;2023-04-01T01:03:45;10.20;98.00
814;DHT22;389;48.710;9.392;2023-04-01T01:08:52;10.20;97.90
814;DHT22;389;48.710;9.392;2023-04-01T01:11:32;10.30;97.80
814;DHT22;389;48.710;9.392;2023-04-01T01:16:54;10.30;97.70
814;DHT22;389;48.710;9.392;2023-04-01T01:27:54;10.40;97.60
814;DHT22;389;48.710;9.392;2023-04-01T01:30:42;10.40;97.70
814;DHT22;389;48.710;9.392;2023-04-01T01:36:07;10.40;97.60
814;DHT22;389;48.710;9.392;2023-04-01T01:38:36;10.40;97.70
814;DHT22;389;48.710;9.392;2023-04-01T01:41:04;10.50;97.80
814;DHT22;389;48.710;9.392;2023-04-01T01:43:42;10.40;97.70
814;DHT22;389;48.710;9.392;2023-04-01T01:46:12;10.40;97.80
814;DHT22;389;48.710;9.392;2023-04-01T01:48:39;10.40;97.80
814;DHT22;389;48.710;9.392;2023-04-01T01:51:07;10.50;97.90
814;DHT22;389;48.710;9.392;2023-04-01T01:53:32;10.30;97.80
814;DHT22;389;48.710;9.392;2023-04-01T01:55:58;10.30;97.80
814;DHT22;389;48.710;9.392;2023-04-01T01:58:45;10.30;97.80
814;DHT22;389;48.710;9.392;2023-04-01T02:01:16;10.30;98.00
814;DHT22;389;48.710;9.392;2023-04-01T02:03:44;10.30;98.10
814;DHT22;389;48.710;9.392;2023-04-01T02:06:14;10.30;98.10
814;DHT22;389;48.710;9.392;2023-04-01T02:11:16;10.20;97.90
814;DHT22;389;48.710;9.392;2023-04-01T02:13:56;10.10;97.80
814;DHT22;389;48.710;9.392;2023-04-01T02:16:36;10.00;97.80
814;DHT22;389;48.710;9.392;2023-04-01T02:19:04;10.00;97.80
814;DHT22;389;48.710;9.392;2023-04-01T02:21:33;10.00;97.80
814;DHT22;389;48.710;9.392;2023-04-01T02:24:02;10.00;97.70
814;DHT22;389;48.710;9.392;2023-04-01T02:26:30;10.00;97.80
814;DHT22;389;48.710;9.392;2023-04-01T02:28:56;10.00;97.80
814;DHT22;389;48.710;9.392;2023-04-01T02:31:24;9.90;98.40
814;DHT22;389;48.710;9.392;2023-04-01T02:33:52;10.00;97.80
814;DHT22;389;48.710;9.392;2023-04-01T02:36:18;9.90;98.40
814;DHT22;389;48.710;9.392;2023-04-01T02:38:45;9.90;98.40
814;DHT22;389;48.710;9.392;2023-04-01T02:41:12;9.90;98.30
814;DHT22;389;48.710;9.392;2023-04-01T02:43:37;9.90;98.30
814;DHT22;389;48.710;9.392;2023-04-01T02:46:03;10.00;97.90
814;DHT22;389;48.710;9.392;2023-04-01T02:48:29;9.90;98.50
814;DHT22;389;48.710;9.392;2023-04-01T02:50:55;9.90;98.50
814;DHT22;389;48.710;9.392;2023-04-01T02:53:21;9.90;98.40
814;DHT22;389;48.710;9.392;2023-04-01T02:55:46;9.90;98.40
814;DHT22;389;48.710;9.392;2023-04-01T02:58:15;9.90;98.30
814;DHT22;389;48.710;9.392;2023-04-01T03:00:41;9.90;98.30
814;DHT22;389;48.710;9.392;2023-04-01T03:03:07;9.80;98.30
814;DHT22;389;48.710;9.392;2023-04-01T03:05:32;9.80;98.20
814;DHT22;389;48.710;9.392;2023-04-01T03:07:58;9.80;98.10
814;DHT22;389;48.710;9.392;2023-04-01T03:10:23;9.80;98.00
814;DHT22;389;48.710;9.392;2023-04-01T03:12:49;9.60;97.90
814;DHT22;389;48.710;9.392;2023-04-01T03:15:15;9.50;97.80
814;DHT22;389;48.710;9.392;2023-04-01T03:17:41;9.50;97.90
814;DHT22;389;48.710;9.392;2023-04-01T03:20:09;9.40;98.00
814;DHT22;389;48.710;9.392;2023-04-01T03:22:36;9.40;98.00
814;DHT22;389;48.710;9.392;2023-04-01T03:25:02;9.30;98.20
814;DHT22;389;48.710;9.392;2023-04-01T03:27:28;9.20;98.30
814;DHT22;389;48.710;9.392;2023-04-01T03:29:53;9.20;98.40
814;DHT22;389;48.710;9.392;2023-04-01T03:32:19;9.10;98.50
814;DHT22;389;48.710;9.392;2023-04-01T03:34:45;9.10;98.60
814;DHT22;389;48.710;9.392;2023-04-01T03:37:10;9.00;98.60
814;DHT22;389;48.710;9.392;2023-04-01T03:39:36;9.00;98.70
814;DHT22;389;48.710;9.392;2023-04-01T03:42:01;9.00;98.80
814;DHT22;389;48.710;9.392;2023-04-01T03:44:31;9.00;98.80
814;DHT22;389;48.710;9.392;2023-04-01T03:46:57;9.00;98.80
814;DHT22;389;48.710;9.392;2023-04-01T03:49:22;9.00;98.90
814;DHT22;389;48.710;9.392;2023-04-01T03:51:48;9.10;98.90
814;DHT22;389;48.710;9.392;2023-04-01T03:54:14;9.00;98.90
814;DHT22;389;48.710;9.392;2023-04-01T03:56:39;9.00;98.80
814;DHT22;389;48.710;9.392;2023-04-01T03:59:06;9.00;98.70
814;DHT22;389;48.710;9.392;2023-04-01T04:01:33;9.00;98.60
814;DHT22;389;48.710;9.392;2023-04-01T04:03:58;9.10;98.50
814;DHT22;389;48.710;9.392;2023-04-01T04:06:24;9.10;98.40
814;DHT22;389;48.710;9.392;2023-04-01T04:08:50;9.10;98.30
814;DHT22;389;48.710;9.392;2023-04-01T04:11:16;9.10;98.20
814;DHT22;389;48.710;9.392;2023-04-01T04:13:43;9.10;98.10
814;DHT22;389;48.710;9.392;2023-04-01T04:16:09;9.00;98.00
814;DHT22;389;48.710;9.392;2023-04-01T04:18:35;8.90;97.90
814;DHT22;389;48.710;9.392;2023-04-01T04:21:01;8.90;97.90
814;DHT22;389;48.710;9.392;2023-04-01T04:23:27;8.90;98.00
814;DHT22;389;48.710;9.392;2023-04-01T04:25:56;8.80;98.00
814;DHT22;389;48.710;9.392;2023-04-01T04:28:22;8.70;98.10
814;DHT22;389;48.710;9.392;2023-04-01T04:30:47;8.60;98.20
814;DHT22;389;48.710;9.392;2023-04-01T04:33:13;8.60;98.40
814;DHT22;389;48.710;9.392;2023-04-01T04:35:38;8.50;98.40
814;DHT22;389;48.710;9.392;2023-04-01T04:38:04;8.50;98.50
814;DHT22;389;48.710;9.392;2023-04-01T04:40:30;8.50;98.60
814;DHT22;389;48.710;9.392;2023-04-01T04:42:55;8.40;98.60
814;DHT22;389;48.710;9.392;2023-04-01T04:45:21;8.40;98.70
814;DHT22;389;48.710;9.392;2023-04-01T04:47:46;8.40;98.70
814;DHT22;389;48.710;9.392;2023-04-01T04:50:12;8.30;98.60
814;DHT22;389;48.710;9.392;2023-04-01T04:52:38;8.40;98.80
814;DHT22;389;48.710;9.392;2023-04-01T04:55:04;8.20;98.60
814;DHT22;389;48.710;9.392;2023-04-01T04:57:29;8.20;98.70
814;DHT22;389;48.710;9.392;2023-04-01T04:59:55;8.10;99.00
814;DHT22;389;48.710;9.392;2023-04-01T05:02:21;8.20;99.10
814;DHT22;389;48.710;9.392;2023-04-01T05:04:46;8.10;99.30
814;DHT22;389;48.710;9.392;2023-04-01T05:07:12;8.20;99.40
814;DHT22;389;48.710;9.392;2023-04-01T05:09:37;8.20;99.50
814;DHT22;389;48.710;9.392;2023-04-01T05:12:03;8.20;99.50
814;DHT22;389;48.710;9.392;2023-04-01T05:14:37;8.20;99.50
814;DHT22;389;48.710;9.392;2023-04-01T05:17:02;8.20;99.60
814;DHT22;389;48.710;9.392;2023-04-01T05:19:28;8.30;99.70
814;DHT22;389;48.710;9.392;2023-04-01T05:21:53;8.30;99.90
814;DHT22;389;48.710;9.392;2023-04-01T05:24:19;8.40;99.90
814;DHT22;389;48.710;9.392;2023-04-01T05:26:44;8.50;99.90
814;DHT22;389;48.710;9.392;2023-04-01T05:29:10;8.60;99.90
814;DHT22;389;48.710;9.392;2023-04-01T05:31:35;8.70;99.90
814;DHT22;389;48.710;9.392;2023-04-01T05:34:01;8.70;99.80
814;DHT22;389;48.710;9.392;2023-04-01T05:36:26;8.80;99.80
814;DHT22;389;48.710;9.392;2023-04-01T05:38:55;8.90;99.60
814;DHT22;389;48.710;9.392;2023-04-01T05:41:20;9.00;99.50
814;DHT22;389;48.710;9.392;2023-04-01T05:43:46;9.10;99.30
814;DHT22;389;48.710;9.392;2023-04-01T05:46:12;9.30;99.10
814;DHT22;389;48.710;9.392;2023-04-01T05:48:37;9.30;98.90
814;DHT22;389;48.710;9.392;2023-04-01T05:51:03;9.30;98.70
814;DHT22;389;48.710;9.392;2023-04-01T05:53:29;9.40;98.40
814;DHT22;389;48.710;9.392;2023-04-01T05:55:55;9.40;98.20
814;DHT22;389;48.710;9.392;2023-04-01T05:58:20;9.50;98.00
814;DHT22;389;48.710;9.392;2023-04-01T06:00:46;9.70;97.90
814;DHT22;389;48.710;9.392;2023-04-01T06:03:11;9.70;97.70
814;DHT22;389;48.710;9.392;2023-04-01T06:05:42;9.70;97.60
814;DHT22;389;48.710;9.392;2023-04-01T06:14:10;10.00;96.50
814;DHT22;389;48.710;9.392;2023-04-01T06:27:57;10.50;95.40
814;DHT22;389;48.710;9.392;2023-04-01T06:30:43;10.60;95.10
814;DHT22;389;48.710;9.392;2023-04-01T06:48:06;11.70;93.90
814;DHT22;389;48.710;9.392;2023-04-01T06:53:13;12.00;93.60
814;DHT22;389;48.710;9.392;2023-04-01T06:55:44;12.10;93.30
814;DHT22;389;48.710;9.392;2023-04-01T06:58:28;12.20;92.90
814;DHT22;389;48.710;9.392;2023-04-01T07:01:01;12.20;92.70
814;DHT22;389;48.710;9.392;2023-04-01T07:03:41;12.20;92.60
814;DHT22;389;48.710;9.392;2023-04-01T07:06:16;12.20;92.60
814;DHT22;389;48.710;9.392;2023-04-01T07:08:45;12.20;92.50
814;DHT22;389;48.710;9.392;2023-04-01T07:11:25;12.10;92.40
814;DHT22;389;48.710;9.392;2023-04-01T07:13:59;12.10;92.50
814;DHT22;389;48.710;9.392;2023-04-01T07:16:37;12.10;92.50
814;DHT22;389;48.710;9.392;2023-04-01T07:19:26;12.10;92.50
814;DHT22;389;48.710;9.392;2023-04-01T07:22:13;12.20;92.60
814;DHT22;389;48.710;9.392;2023-04-01T07:24:42;12.20;92.50
814;DHT22;389;48.710;9.392;2023-04-01T07:27:11;12.20;92.40
814;DHT22;389;48.710;9.392;2023-04-01T07:29:37;12.20;92.40
814;DHT22;389;48.710;9.392;2023-04-01T07:32:14;12.20;92.60
814;DHT22;389;48.710;9.392;2023-04-01T07:42:27;12.30;92.30
814;DHT22;389;48.710;9.392;2023-04-01T07:48:30;12.40;92.20
814;DHT22;389;48.710;9.392;2023-04-01T08:07:18;12.60;92.00
814;DHT22;389;48.710;9.392;2023-04-01T08:09:59;12.60;92.10
814;DHT22;389;48.710;9.392;2023-04-01T08:12:45;12.70;91.80
814;DHT22;389;48.710;9.392;2023-04-01T08:15:38;12.70;91.80
814;DHT22;389;48.710;9.392;2023-04-01T08:18:38;12.70;92.00
814;DHT22;389;48.710;9.392;2023-04-01T08:21:23;12.80;92.00
814;DHT22;389;48.710;9.392;2023-04-01T08:23:52;12.90;92.10
814;DHT22;389;48.710;9.392;2023-04-01T08:26:35;13.00;91.80
814;DHT22;389;48.710;9.392;2023-04-01T08:29:49;13.00;91.70
814;DHT22;389;48.710;9.392;2023-04-01T08:32:20;12.90;91.60
814;DHT22;389;48.710;9.392;2023-04-01T08:34:59;13.00;91.90
814;DHT22;389;48.710;9.392;2023-04-01T08:37:30;12.90;91.60
814;DHT22;389;48.710;9.392;2023-04-01T08:40:22;12.90;91.90
814;DHT22;389;48.710;9.392;2023-04-01T08:54:29;13.00;92.20
814;DHT22;389;48.710;9.392;2023-04-01T09:14:17;12.80;93.60
814;DHT22;389;48.710;9.392;2023-04-01T09:22:53;12.50;94.80
814;DHT22;389;48.710;9.392;2023-04-01T09:38:58;12.40;95.10
814;DHT22;389;48.710;9.392;2023-04-01T09:41:35;12.40;94.50
814;DHT22;389;48.710;9.392;2023-04-01T09:44:12;12.40;94.50
814;DHT22;389;48.710;9.392;2023-04-01T09:53:11;12.60;94.00
814;DHT22;389;48.710;9.392;2023-04-01T10:12:43;12.40;94.10
814;DHT22;389;48.710;9.392;2023-04-01T10:15:28;12.40;94.00
814;DHT22;389;48.710;9.392;2023-04-01T10:24:28;12.40;94.50
814;DHT22;389;48.710;9.392;2023-04-01T10:27:17;12.40;94.50
814;DHT22;389;48.710;9.392;2023-04-01T10:29:58;12.50;94.50
814;DHT22;389;48.710;9.392;2023-04-01T10:35:30;12.50;94.80
814;DHT22;389;48.710;9.392;2023-04-01T11:03:56;12.90;92.50
814;DHT22;389;48.710;9.392;2023-04-01T11:12:20;12.90;92.10
814;DHT22;389;48.710;9.392;2023-04-01T11:23:37;13.40;92.00
814;DHT22;389;48.710;9.392;2023-04-01T11:29:35;13.50;91.70
814;DHT22;389;48.710;9.392;2023-04-01T11:32:24;13.50;91.70
814;DHT22;389;48.710;9.392;2023-04-01T11:40:28;13.60;91.90
814;DHT22;389;48.710;9.392;2023-04-01T11:43:47;13.70;91.30
814;DHT22;389;48.710;9.392;2023-04-01T11:46:20;13.70;90.90
814;DHT22;389;48.710;9.392;2023-04-01T11:51:28;13.80;90.70
814;DHT22;389;48.710;9.392;2023-04-01T11:54:48;13.90;90.70
814;DHT22;389;48.710;9.392;2023-04-01T12:08:32;13.90;90.10
814;DHT22;389;48.710;9.392;2023-04-01T12:14:03;13.80;90.00
814;DHT22;389;48.710;9.392;2023-04-01T12:30:37;13.60;90.10
814;DHT22;389;48.710;9.392;2023-04-01T12:38:48;13.50;90.00
814;DHT22;389;48.710;9.392;2023-04-01T12:41:29;13.50;90.20
814;DHT22;389;48.710;9.392;2023-04-01T12:52:58;13.60;90.80
814;DHT22;389;48.710;9.392;2023-04-01T12:55:39;13.60;90.40
814;DHT22;389;48.710;9.392;2023-04-01T13:01:10;13.70;90.00
814;DHT22;389;48.710;9.392;2023-04-01T13:17:47;14.40;88.80
814;DHT22;389;48.710;9.392;2023-04-01T13:29:16;14.30;87.90
814;DHT22;389;48.710;9.392;2023-04-01T13:42:59;14.00;87.30
814;DHT22;389;48.710;9.392;2023-04-01T13:57:14;13.80;87.90
814;DHT22;389;48.710;9.392;2023-04-01T14:05:49;13.90;87.60
814;DHT22;389;48.710;9.392;2023-04-01T14:11:47;13.90;87.30
814;DHT22;389;48.710;9.392;2023-04-01T14:29:08;13.90;87.30
814;DHT22;389;48.710;9.392;2023-04-01T14:32:02;13.90;87.00
814;DHT22;389;48.710;9.392;2023-04-01T14:37:34;14.10;87.80
814;DHT22;389;48.710;9.392;2023-04-01T14:43:01;14.10;86.30
814;DHT22;389;48.710;9.392;2023-04-01T14:53:41;14.00;87.60
814;DHT22;389;48.710;9.392;2023-04-01T14:56:10;14.00;87.90
814;DHT22;389;48.710;9.392;2023-04-01T14:58:49;14.00;88.30
814;DHT22;389;48.710;9.392;2023-04-01T15:06:54;13.80;88.80
814;DHT22;389;48.710;9.392;2023-04-01T15:13:04;13.80;89.70
814;DHT22;389;48.710;9.392;2023-04-01T15:19:04;13.70;88.30
814;DHT22;389;48.710;9.392;2023-04-01T15:24:25;13.60;87.80
814;DHT22;389;48.710;9.392;2023-04-01T15:29:56;13.50;87.40
814;DHT22;389;48.710;9.392;2023-04-01T15:32:58;13.40;87.50
814;DHT22;389;48.710;9.392;2023-04-01T15:38:43;13.30;88.50
814;DHT22;389;48.710;9.392;2023-04-01T15:41:24;13.30;88.70
814;DHT22;389;48.710;9.392;2023-04-01T15:43:56;13.20;88.70
814;DHT22;389;48.710;9.392;2023-04-01T15:46:24;13.20;88.90
814;DHT22;389;48.710;9.392;2023-04-01T15:51:57;13.20;89.40
814;DHT22;389;48.710;9.392;2023-04-01T15:54:47;13.10;89.10
814;DHT22;389;48.710;9.392;2023-04-01T16:00:30;13.10;89.80
814;DHT22;389;48.710;9.392;2023-04-01T16:11:57;12.90;90.60
814;DHT22;389;48.710;9.392;2023-04-01T16:14:56;12.90;90.80
814;DHT22;389;48.710;9.392;2023-04-01T16:20:20;12.90;91.10
814;DHT22;389;48.710;9.392;2023-04-01T16:22:58;12.80;91.00
814;DHT22;389;48.710;9.392;2023-04-01T16:25:32;12.80;91.00
814;DHT22;389;48.710;9.392;2023-04-01T16:34:14;12.70;91.60
814;DHT22;389;48.710;9.392;2023-04-01T16:36:54;12.70;91.80
814;DHT22;389;48.710;9.392;2023-04-01T16:39:29;12.70;92.00
814;DHT22;389;48.710;9.392;2023-04-01T16:42:13;12.60;92.00
814;DHT22;389;48.710;9.392;2023-04-01T16:47:36;12.60;92.10
814;DHT22;389;48.710;9.392;2023-04-01T16:50:24;12.60;92.20
814;DHT22;389;48.710;9.392;2023-04-01T16:53:08;12.60;92.20
814;DHT22;389;48.710;9.392;2023-04-01T16:58:33;12.60;92.50
814;DHT22;389;48.710;9.392;2023-04-01T17:01:20;12.60;92.40
814;DHT22;389;48.710;9.392;2023-04-01T17:03:52;12.60;92.50
814;DHT22;389;48.710;9.392;2023-04-01T17:06:40;12.60;92.50
814;DHT22;389;48.710;9.392;2023-04-01T17:15:01;12.50;92.50
814;DHT22;389;48.710;9.392;2023-04-01T17:17:56;12.60;92.50
814;DHT22;389;48.710;9.392;2023-04-01T17:23:09;12.60;92.50
814;DHT22;389;48.710;9.392;2023-04-01T17:28:30;12.50;92.50
814;DHT22;389;48.710;9.392;2023-04-01T17:31:12;12.50;92.40
814;DHT22;389;48.710;9.392;2023-04-01T17:36:51;12.50;92.50
814;DHT22;389;48.710;9.392;2023-04-01T17:39:53;12.50;92.50
814;DHT22;389;48.710;9.392;2023-04-01T17:42:31;12.50;92.70
814;DHT22;389;48.710;9.392;2023-04-01T17:50:24;12.40;92.00
814;DHT22;389;48.710;9.392;2023-04-01T17:53:06;12.40;92.00
814;DHT22;389;48.710;9.392;2023-04-01T17:55:48;12.30;91.90
814;DHT22;389;48.710;9.392;2023-04-01T17:58:20;12.30;91.80
814;DHT22;389;48.710;9.392;2023-04-01T18:01:08;12.30;91.80
814;DHT22;389;48.710;9.392;2023-04-01T18:03:55;12.30;91.90
814;DHT22;389;48.710;9.392;2023-04-01T18:06:34;12.30;91.80
814;DHT22;389;48.710;9.392;2023-04-01T18:22:58;12.20;91.90
814;DHT22;389;48.710;9.392;2023-04-01T18:30:30;12.20;92.10
814;DHT22;389;48.710;9.392;2023-04-01T18:46:17;12.10;93.90
814;DHT22;389;48.710;9.392;2023-04-01T18:51:16;12.10;93.70
814;DHT22;389;48.710;9.392;2023-04-01T18:53:52;11.90;93.80
814;DHT22;389;48.710;9.392;2023-04-01T18:56:38;11.80;93.20
814;DHT22;389;48.710;9.392;2023-04-01T18:59:43;11.70;93.30
814;DHT22;389;48.710;9.392;2023-04-01T19:02:33;11.70;93.40
814;DHT22;389;48.710;9.392;2023-04-01T19:05:07;11.70;93.60
814;DHT22;389;48.710;9.392;2023-04-01T19:13:29;11.50;93.10
814;DHT22;389;48.710;9.392;2023-04-01T19:18:53;11.40;93.00
814;DHT22;389;48.710;9.392;2023-04-01T19:21:31;11.30;93.00
814;DHT22;389;48.710;9.392;2023-04-01T19:24:11;11.20;93.10
814;DHT22;389;48.710;9.392;2023-04-01T19:27:03;11.10;93.30
814;DHT22;389;48.710;9.392;2023-04-01T19:30:01;11.00;93.60
814;DHT22;389;48.710;9.392;2023-04-01T19:35:43;10.80;93.60
814;DHT22;389;48.710;9.392;2023-04-01T19:38:30;10.70;93.80
814;DHT22;389;48.710;9.392;2023-04-01T19:46:42;10.60;94.20
814;DHT22;389;48.710;9.392;2023-04-01T19:49:42;10.60;94.40
814;DHT22;389;48.710;9.392;2023-04-01T19:52:18;10.60;94.60
814;DHT22;389;48.710;9.392;2023-04-01T19:54:52;10.60;94.70
814;DHT22;389;48.710;9.392;2023-04-01T20:05:45;10.60;95.10
814;DHT22;389;48.710;9.392;2023-04-01T20:13:59;10.40;95.30
814;DHT22;389;48.710;9.392;2023-04-01T20:19:29;10.30;95.40
814;DHT22;389;48.710;9.392;2023-04-01T20:21:59;10.30;95.50
814;DHT22;389;48.710;9.392;2023-04-01T20:24:35;10.30;95.70
814;DHT22;389;48.710;9.392;2023-04-01T20:27:20;10.30;96.00
814;DHT22;389;48.710;9.392;2023-04-01T20:30:19;10.30;96.00
814;DHT22;389;48.710;9.392;2023-04-01T20:33:10;10.30;96.10
814;DHT22;389;48.710;9.392;2023-04-01T20:50:18;10.20;96.90
814;DHT22;389;48.710;9.392;2023-04-01T20:55:29;10.20;97.10
814;DHT22;389;48.710;9.392;2023-04-01T20:58:12;10.20;97.20
814;DHT22;389;48.710;9.392;2023-04-01T21:00:52;10.20;97.20
814;DHT22;389;48.710;9.392;2023-04-01T21:12:18;10.20;97.40
814;DHT22;389;48.710;9.392;2023-04-01T21:17:52;10.20;97.40
814;DHT22;389;48.710;9.392;2023-04-01T21:23:01;10.10;97.40
814;DHT22;389;48.710;9.392;2023-04-01T21:26:04;10.40;97.50
814;DHT22;389;48.710;9.392;2023-04-01T21:37:26;10.30;97.50
814;DHT22;389;48.710;9.392;2023-04-01T21:45:24;10.30;97.30
814;DHT22;389;48.710;9.392;2023-04-01T21:57:27;10.10;97.50
814;DHT22;389;48.710;9.392;2023-04-01T22:05:30;10.10;97.70
814;DHT22;389;48.710;9.392;2023-04-01T22:10:51;10.10;97.70
814;DHT22;389;48.710;9.392;2023-04-01T22:21:18;10.20;97.60
814;DHT22;389;48.710;9.392;2023-04-01T22:24:16;10.20;97.70
814;DHT22;389;48.710;9.392;2023-04-01T22:26:50;10.20;97.60
814;DHT22;389;48.710;9.392;2023-04-01T22:29:38;10.20;97.60
814;DHT22;389;48.710;9.392;2023-04-01T22:32:18;10.10;97.60
814;DHT22;389;48.710;9.392;2023-04-01T22:43:25;10.20;97.70
814;DHT22;389;48.710;9.392;2023-04-01T22:48:46;10.10;97.80
814;DHT22;389;48.710;9.392;2023-04-01T22:51:18;10.10;97.80
814;DHT22;389;48.710;9.392;2023-04-01T22:54:04;9.90;98.40
814;DHT22;389;48.710;9.392;2023-04-01T22:56:38;10.10;98.00
814;DHT22;389;48.710;9.392;2023-04-01T22:59:16;10.10;98.00
814;DHT22;389;48.710;9.392;2023-04-01T23:04:35;10.10;97.80
814;DHT22;389;48.710;9.392;2023-04-01T23:07:20;9.90;98.20
814;DHT22;389;48.710;9.392;2023-04-01T23:09:50;10.00;97.60
814;DHT22;389;48.710;9.392;2023-04-01T23:12:18;10.20;97.50
814;DHT22;389;48.710;9.392;2023-04-01T23:14:50;10.10;97.40
814;DHT22;389;48.710;9.392;2023-04-01T23:17:46;10.20;97.30
814;DHT22;389;48.710;9.392;2023-04-01T23:20:29;10.20;97.20
814;DHT22;389;48.710;9.392;2023-04-01T23:23:13;10.20;97.10
814;DHT22;389;48.710;9.392;2023-04-01T23:28:48;10.20;96.70
814;DHT22;389;48.710;9.392;2023-04-01T23:31:45;10.30;96.60
814;DHT22;389;48.710;9.392;2023-04-01T23:34:40;10.10;96.50
814;DHT22;389;48.710;9.392;2023-04-01T23:37:11;10.20;96.50
814;DHT22;389;48.710;9.392;2023-04-01T23:42:15;10.30;96.50
814;DHT22;389;48.710;9.392;2023-04-01T23:44:46;10.30;96.40
814;DHT22;389;48.710;9.392;2023-04-01T23:47:23;10.40;96.40
814;DHT22;389;48.710;9.392;2023-04-01T23:49:55;10.20;96.20
814;DHT22;389;48.710;9.392;2023-04-01T23:52:43;10.30;96.30
814;DHT22;389;48.710;9.392;2023-04-01T23:55:19;10.20;96.20
